首页
METAR-TAF:

METAR-TAF

机场 :

蘇丹哈桑丁國際機場

望加錫, 南苏拉威西省, 印度尼西亚

纬度: 05-04S, 经度: 119-33E, 海拔: 14米

当前天气观测

该预报发布于55分钟前的18:00 UTC
风速1节,风向东转东北
温度 24°C
湿度 106%
气压 1011 hPa
能见度10公里或以上
少量云层高于1900英尺

METAR: WAAA 211800Z 06001KT 9999 FEW019 24/25 Q1011 NOSIG

时间: 01:55 (18:55 UTC)

预报

该预报发布于1小时和55分钟前的17:00 UTC
预报有效从21日的 18点(UTC)到 23日的 00点(UTC)
风速5节,风向东转东南
能見度: 8000
散云层高于1800英尺
成为
从 21日的 21点(UTC)到 21日的 23点(UTC)
能见度10公里或以上
成为
从 22日的 01点(UTC)到 22日的 03点(UTC)
风速11节,风向西转西北

TAF: WAAA 211700Z 2118/2300 11005KT 8000 SCT018 BECMG 2121/2123 9999 BECMG 2201/2203 30011KT

超过4000个机场的气象观测和天气预报(METAR&TAF报告)。

可查询的气象台以黄色和红色小点在地图上表示。

将鼠标移到小点上方,可查看气象台名称。

然后点击查看天气观测和预报。

如需切换地图:点击带黑十字的绿色按钮放大地图;点击带横线的绿色按钮缩小地图;或者点击绿色箭头查看邻近地区的地图。


METAR-TAF: